sensor_id;sensor_type;location;lat;lon;timestamp;P1;durP1;ratioP1;P2;durP2;ratioP2
31676;SDS011;18385;51.572;6.578;2023-04-08T00:00:35;107.88;;;9.48;;
31676;SDS011;18385;51.572;6.578;2023-04-08T00:03:01;89.95;;;9.02;;
31676;SDS011;18385;51.572;6.578;2023-04-08T00:05:27;77.00;;;8.35;;
31676;SDS011;18385;51.572;6.578;2023-04-08T00:07:53;42.78;;;6.97;;
31676;SDS011;18385;51.572;6.578;2023-04-08T00:10:19;50.25;;;8.15;;
31676;SDS011;18385;51.572;6.578;2023-04-08T00:12:45;66.75;;;8.15;;
31676;SDS011;18385;51.572;6.578;2023-04-08T00:15:12;46.58;;;7.88;;
31676;SDS011;18385;51.572;6.578;2023-04-08T00:17:38;38.05;;;8.48;;
31676;SDS011;18385;51.572;6.578;2023-04-08T00:20:03;37.90;;;7.65;;
31676;SDS011;18385;51.572;6.578;2023-04-08T00:22:29;32.67;;;7.95;;
31676;SDS011;18385;51.572;6.578;2023-04-08T00:24:56;37.55;;;9.45;;
31676;SDS011;18385;51.572;6.578;2023-04-08T00:27:22;24.77;;;8.98;;
31676;SDS011;18385;51.572;6.578;2023-04-08T00:29:49;31.85;;;8.55;;
31676;SDS011;18385;51.572;6.578;2023-04-08T00:32:16;33.00;;;8.63;;
31676;SDS011;18385;51.572;6.578;2023-04-08T00:34:41;31.17;;;8.98;;
31676;SDS011;18385;51.572;6.578;2023-04-08T00:37:08;29.63;;;9.07;;
31676;SDS011;18385;51.572;6.578;2023-04-08T00:39:35;44.72;;;9.55;;
31676;SDS011;18385;51.572;6.578;2023-04-08T00:42:01;40.40;;;9.32;;
31676;SDS011;18385;51.572;6.578;2023-04-08T00:44:27;54.67;;;10.45;;
31676;SDS011;18385;51.572;6.578;2023-04-08T00:46:53;76.40;;;10.60;;
31676;SDS011;18385;51.572;6.578;2023-04-08T00:49:19;43.55;;;10.23;;
31676;SDS011;18385;51.572;6.578;2023-04-08T00:51:44;54.70;;;11.77;;
31676;SDS011;18385;51.572;6.578;2023-04-08T00:54:10;32.88;;;9.77;;
31676;SDS011;18385;51.572;6.578;2023-04-08T00:56:36;66.60;;;12.10;;
31676;SDS011;18385;51.572;6.578;2023-04-08T00:59:02;55.28;;;10.48;;
31676;SDS011;18385;51.572;6.578;2023-04-08T01:06:37;31.55;;;9.98;;
31676;SDS011;18385;51.572;6.578;2023-04-08T01:09:11;45.13;;;10.40;;
31676;SDS011;18385;51.572;6.578;2023-04-08T01:11:39;47.38;;;10.43;;
31676;SDS011;18385;51.572;6.578;2023-04-08T01:14:08;30.55;;;9.05;;
31676;SDS011;18385;51.572;6.578;2023-04-08T01:16:37;26.83;;;9.50;;
31676;SDS011;18385;51.572;6.578;2023-04-08T01:19:05;147.13;;;14.20;;
31676;SDS011;18385;51.572;6.578;2023-04-08T01:21:35;29.47;;;10.43;;
31676;SDS011;18385;51.572;6.578;2023-04-08T01:24:05;34.55;;;8.55;;
31676;SDS011;18385;51.572;6.578;2023-04-08T01:26:47;100.65;;;13.30;;
31676;SDS011;18385;51.572;6.578;2023-04-08T01:29:14;111.75;;;13.00;;
31676;SDS011;18385;51.572;6.578;2023-04-08T01:31:40;43.13;;;10.43;;
31676;SDS011;18385;51.572;6.578;2023-04-08T01:34:07;30.67;;;9.88;;
31676;SDS011;18385;51.572;6.578;2023-04-08T01:36:36;38.95;;;10.60;;
31676;SDS011;18385;51.572;6.578;2023-04-08T01:39:04;30.48;;;10.70;;
31676;SDS011;18385;51.572;6.578;2023-04-08T01:41:31;44.45;;;11.68;;
31676;SDS011;18385;51.572;6.578;2023-04-08T01:43:58;39.60;;;11.63;;
31676;SDS011;18385;51.572;6.578;2023-04-08T01:46:24;44.00;;;11.15;;
31676;SDS011;18385;51.572;6.578;2023-04-08T01:48:51;26.15;;;10.40;;
31676;SDS011;18385;51.572;6.578;2023-04-08T01:51:19;29.00;;;10.68;;
31676;SDS011;18385;51.572;6.578;2023-04-08T01:53:46;27.83;;;11.57;;
31676;SDS011;18385;51.572;6.578;2023-04-08T01:56:13;24.27;;;11.77;;
31676;SDS011;18385;51.572;6.578;2023-04-08T01:58:41;21.60;;;10.90;;
31676;SDS011;18385;51.572;6.578;2023-04-08T02:01:11;24.83;;;11.07;;
31676;SDS011;18385;51.572;6.578;2023-04-08T02:03:41;33.50;;;12.82;;
31676;SDS011;18385;51.572;6.578;2023-04-08T02:06:09;32.33;;;12.60;;
31676;SDS011;18385;51.572;6.578;2023-04-08T02:08:35;28.83;;;11.63;;
31676;SDS011;18385;51.572;6.578;2023-04-08T02:11:01;30.98;;;11.85;;
31676;SDS011;18385;51.572;6.578;2023-04-08T02:13:28;26.35;;;11.93;;
31676;SDS011;18385;51.572;6.578;2023-04-08T02:15:56;25.50;;;11.63;;
31676;SDS011;18385;51.572;6.578;2023-04-08T02:18:33;25.55;;;11.32;;
31676;SDS011;18385;51.572;6.578;2023-04-08T02:21:08;29.15;;;12.02;;
31676;SDS011;18385;51.572;6.578;2023-04-08T02:23:38;28.77;;;11.75;;
31676;SDS011;18385;51.572;6.578;2023-04-08T02:26:11;29.17;;;11.82;;
31676;SDS011;18385;51.572;6.578;2023-04-08T02:28:38;38.90;;;13.00;;
31676;SDS011;18385;51.572;6.578;2023-04-08T02:31:10;28.95;;;12.65;;
31676;SDS011;18385;51.572;6.578;2023-04-08T02:33:43;27.98;;;11.85;;
31676;SDS011;18385;51.572;6.578;2023-04-08T02:36:10;24.63;;;12.07;;
31676;SDS011;18385;51.572;6.578;2023-04-08T02:38:37;31.65;;;13.93;;
31676;SDS011;18385;51.572;6.578;2023-04-08T02:41:03;33.42;;;12.38;;
31676;SDS011;18385;51.572;6.578;2023-04-08T02:43:28;40.55;;;12.73;;
31676;SDS011;18385;51.572;6.578;2023-04-08T02:45:59;25.30;;;11.52;;
31676;SDS011;18385;51.572;6.578;2023-04-08T02:48:28;24.42;;;11.85;;
31676;SDS011;18385;51.572;6.578;2023-04-08T02:50:55;57.88;;;13.05;;
31676;SDS011;18385;51.572;6.578;2023-04-08T02:53:22;31.60;;;12.48;;
31676;SDS011;18385;51.572;6.578;2023-04-08T02:55:48;165.55;;;15.35;;
31676;SDS011;18385;51.572;6.578;2023-04-08T02:58:14;68.32;;;11.90;;
31676;SDS011;18385;51.572;6.578;2023-04-08T03:00:40;102.63;;;12.77;;
31676;SDS011;18385;51.572;6.578;2023-04-08T03:03:05;181.68;;;16.00;;
31676;SDS011;18385;51.572;6.578;2023-04-08T03:05:31;83.30;;;13.23;;
31676;SDS011;18385;51.572;6.578;2023-04-08T03:07:57;94.55;;;14.40;;
31676;SDS011;18385;51.572;6.578;2023-04-08T03:10:23;154.23;;;15.07;;
31676;SDS011;18385;51.572;6.578;2023-04-08T03:12:49;109.95;;;13.18;;
31676;SDS011;18385;51.572;6.578;2023-04-08T03:15:14;213.98;;;16.35;;
31676;SDS011;18385;51.572;6.578;2023-04-08T03:17:40;206.10;;;16.42;;
31676;SDS011;18385;51.572;6.578;2023-04-08T03:20:06;176.45;;;15.60;;
31676;SDS011;18385;51.572;6.578;2023-04-08T03:22:32;116.85;;;13.88;;
31676;SDS011;18385;51.572;6.578;2023-04-08T03:24:58;91.43;;;11.50;;
31676;SDS011;18385;51.572;6.578;2023-04-08T03:27:24;97.45;;;12.25;;
31676;SDS011;18385;51.572;6.578;2023-04-08T03:29:50;285.75;;;17.65;;
31676;SDS011;18385;51.572;6.578;2023-04-08T03:32:17;192.48;;;12.48;;
31676;SDS011;18385;51.572;6.578;2023-04-08T03:34:43;163.75;;;12.63;;
31676;SDS011;18385;51.572;6.578;2023-04-08T03:37:08;173.88;;;13.18;;
31676;SDS011;18385;51.572;6.578;2023-04-08T03:39:34;139.07;;;11.55;;
31676;SDS011;18385;51.572;6.578;2023-04-08T03:42:00;81.05;;;9.50;;
31676;SDS011;18385;51.572;6.578;2023-04-08T03:44:27;97.32;;;10.48;;
31676;SDS011;18385;51.572;6.578;2023-04-08T03:46:53;117.35;;;12.23;;
31676;SDS011;18385;51.572;6.578;2023-04-08T03:49:18;101.22;;;11.57;;
31676;SDS011;18385;51.572;6.578;2023-04-08T03:51:44;215.43;;;15.20;;
31676;SDS011;18385;51.572;6.578;2023-04-08T03:54:10;128.07;;;10.95;;
31676;SDS011;18385;51.572;6.578;2023-04-08T03:56:35;93.55;;;11.50;;
31676;SDS011;18385;51.572;6.578;2023-04-08T03:59:01;137.35;;;10.80;;
31676;SDS011;18385;51.572;6.578;2023-04-08T04:01:27;299.85;;;16.63;;
31676;SDS011;18385;51.572;6.578;2023-04-08T04:03:54;83.78;;;10.05;;
31676;SDS011;18385;51.572;6.578;2023-04-08T04:06:20;116.47;;;11.63;;
31676;SDS011;18385;51.572;6.578;2023-04-08T04:08:46;154.80;;;13.13;;
31676;SDS011;18385;51.572;6.578;2023-04-08T04:11:12;106.57;;;11.15;;
31676;SDS011;18385;51.572;6.578;2023-04-08T04:13:37;273.85;;;18.08;;
31676;SDS011;18385;51.572;6.578;2023-04-08T04:16:03;101.63;;;11.82;;
31676;SDS011;18385;51.572;6.578;2023-04-08T04:18:29;255.80;;;17.58;;
31676;SDS011;18385;51.572;6.578;2023-04-08T04:20:54;100.90;;;11.05;;
31676;SDS011;18385;51.572;6.578;2023-04-08T04:23:20;136.25;;;13.25;;
31676;SDS011;18385;51.572;6.578;2023-04-08T04:25:48;118.47;;;11.70;;
31676;SDS011;18385;51.572;6.578;2023-04-08T04:28:14;107.63;;;12.18;;
31676;SDS011;18385;51.572;6.578;2023-04-08T04:30:40;104.35;;;11.63;;
31676;SDS011;18385;51.572;6.578;2023-04-08T04:33:06;232.43;;;16.42;;
31676;SDS011;18385;51.572;6.578;2023-04-08T04:35:31;128.80;;;12.73;;
31676;SDS011;18385;51.572;6.578;2023-04-08T04:37:58;165.48;;;13.30;;
31676;SDS011;18385;51.572;6.578;2023-04-08T04:40:23;181.73;;;13.77;;
31676;SDS011;18385;51.572;6.578;2023-04-08T04:42:49;223.60;;;16.10;;
31676;SDS011;18385;51.572;6.578;2023-04-08T04:45:15;151.65;;;13.38;;
31676;SDS011;18385;51.572;6.578;2023-04-08T04:47:40;76.75;;;10.95;;
31676;SDS011;18385;51.572;6.578;2023-04-08T04:50:06;70.60;;;9.95;;
31676;SDS011;18385;51.572;6.578;2023-04-08T04:52:32;110.55;;;11.18;;
31676;SDS011;18385;51.572;6.578;2023-04-08T04:55:00;51.92;;;8.55;;
31676;SDS011;18385;51.572;6.578;2023-04-08T04:57:26;155.10;;;12.65;;
31676;SDS011;18385;51.572;6.578;2023-04-08T04:59:52;69.82;;;10.98;;
31676;SDS011;18385;51.572;6.578;2023-04-08T05:02:17;98.03;;;11.80;;
31676;SDS011;18385;51.572;6.578;2023-04-08T05:04:43;83.93;;;10.27;;
31676;SDS011;18385;51.572;6.578;2023-04-08T05:07:08;102.90;;;11.57;;
31676;SDS011;18385;51.572;6.578;2023-04-08T05:09:34;92.10;;;11.95;;
31676;SDS011;18385;51.572;6.578;2023-04-08T05:12:00;100.57;;;12.65;;
31676;SDS011;18385;51.572;6.578;2023-04-08T05:14:27;102.25;;;11.45;;
31676;SDS011;18385;51.572;6.578;2023-04-08T05:16:54;91.57;;;11.20;;
31676;SDS011;18385;51.572;6.578;2023-04-08T05:19:20;87.95;;;11.77;;
31676;SDS011;18385;51.572;6.578;2023-04-08T05:21:46;194.02;;;15.13;;
31676;SDS011;18385;51.572;6.578;2023-04-08T05:24:11;195.95;;;14.32;;
31676;SDS011;18385;51.572;6.578;2023-04-08T05:26:37;98.95;;;12.07;;
31676;SDS011;18385;51.572;6.578;2023-04-08T05:29:03;159.25;;;14.00;;
31676;SDS011;18385;51.572;6.578;2023-04-08T05:31:28;180.00;;;14.60;;
31676;SDS011;18385;51.572;6.578;2023-04-08T05:33:54;104.80;;;11.80;;
31676;SDS011;18385;51.572;6.578;2023-04-08T05:36:20;76.80;;;11.27;;
31676;SDS011;18385;51.572;6.578;2023-04-08T05:38:45;76.80;;;11.90;;
31676;SDS011;18385;51.572;6.578;2023-04-08T05:41:11;36.20;;;8.57;;
31676;SDS011;18385;51.572;6.578;2023-04-08T05:43:37;107.93;;;11.95;;
31676;SDS011;18385;51.572;6.578;2023-04-08T05:46:06;109.03;;;12.40;;
31676;SDS011;18385;51.572;6.578;2023-04-08T05:50:57;104.97;;;11.25;;
31676;SDS011;18385;51.572;6.578;2023-04-08T05:53:23;55.28;;;10.40;;
31676;SDS011;18385;51.572;6.578;2023-04-08T05:55:49;74.68;;;10.55;;
31676;SDS011;18385;51.572;6.578;2023-04-08T05:58:15;101.78;;;11.52;;
31676;SDS011;18385;51.572;6.578;2023-04-08T06:00:41;50.22;;;10.52;;
31676;SDS011;18385;51.572;6.578;2023-04-08T06:03:06;46.42;;;10.70;;
31676;SDS011;18385;51.572;6.578;2023-04-08T06:05:32;91.07;;;11.68;;
31676;SDS011;18385;51.572;6.578;2023-04-08T06:07:58;78.63;;;10.02;;
31676;SDS011;18385;51.572;6.578;2023-04-08T06:10:23;66.10;;;8.80;;
31676;SDS011;18385;51.572;6.578;2023-04-08T06:12:49;58.20;;;8.65;;
31676;SDS011;18385;51.572;6.578;2023-04-08T06:15:15;59.70;;;8.30;;
31676;SDS011;18385;51.572;6.578;2023-04-08T06:17:41;68.47;;;9.23;;
31676;SDS011;18385;51.572;6.578;2023-04-08T06:20:06;39.97;;;8.27;;
31676;SDS011;18385;51.572;6.578;2023-04-08T06:22:35;58.70;;;10.02;;
31676;SDS011;18385;51.572;6.578;2023-04-08T06:25:02;32.95;;;8.68;;
31676;SDS011;18385;51.572;6.578;2023-04-08T06:27:27;34.38;;;9.07;;
31676;SDS011;18385;51.572;6.578;2023-04-08T06:29:53;32.67;;;9.23;;
31676;SDS011;18385;51.572;6.578;2023-04-08T06:32:19;44.60;;;9.15;;
31676;SDS011;18385;51.572;6.578;2023-04-08T06:34:45;37.17;;;8.35;;
31676;SDS011;18385;51.572;6.578;2023-04-08T06:37:11;51.90;;;8.43;;
31676;SDS011;18385;51.572;6.578;2023-04-08T06:39:37;39.05;;;8.38;;
31676;SDS011;18385;51.572;6.578;2023-04-08T06:42:02;48.97;;;8.90;;
31676;SDS011;18385;51.572;6.578;2023-04-08T06:44:44;44.15;;;9.23;;
31676;SDS011;18385;51.572;6.578;2023-04-08T06:47:09;21.35;;;9.02;;
31676;SDS011;18385;51.572;6.578;2023-04-08T06:49:35;26.20;;;9.52;;
31676;SDS011;18385;51.572;6.578;2023-04-08T06:52:01;18.60;;;10.07;;
31676;SDS011;18385;51.572;6.578;2023-04-08T06:54:27;17.35;;;9.57;;
31676;SDS011;18385;51.572;6.578;2023-04-08T06:56:52;16.73;;;9.32;;
31676;SDS011;18385;51.572;6.578;2023-04-08T06:59:18;20.42;;;9.35;;
31676;SDS011;18385;51.572;6.578;2023-04-08T07:01:44;17.02;;;10.85;;
31676;SDS011;18385;51.572;6.578;2023-04-08T07:04:10;18.50;;;10.80;;
31676;SDS011;18385;51.572;6.578;2023-04-08T07:06:36;19.98;;;10.68;;
31676;SDS011;18385;51.572;6.578;2023-04-08T07:09:01;16.58;;;9.88;;
31676;SDS011;18385;51.572;6.578;2023-04-08T07:11:28;17.58;;;10.85;;
31676;SDS011;18385;51.572;6.578;2023-04-08T07:13:54;14.13;;;9.40;;
31676;SDS011;18385;51.572;6.578;2023-04-08T07:16:19;15.48;;;9.48;;
31676;SDS011;18385;51.572;6.578;2023-04-08T07:18:45;15.32;;;10.43;;
31676;SDS011;18385;51.572;6.578;2023-04-08T07:21:11;16.00;;;10.63;;
31676;SDS011;18385;51.572;6.578;2023-04-08T07:23:37;16.42;;;10.68;;
31676;SDS011;18385;51.572;6.578;2023-04-08T07:26:03;16.55;;;10.77;;
31676;SDS011;18385;51.572;6.578;2023-04-08T07:28:31;13.93;;;8.98;;
31676;SDS011;18385;51.572;6.578;2023-04-08T07:31:08;17.65;;;10.68;;
31676;SDS011;18385;51.572;6.578;2023-04-08T07:33:34;19.80;;;10.63;;
31676;SDS011;18385;51.572;6.578;2023-04-08T07:36:00;15.25;;;10.38;;
31676;SDS011;18385;51.572;6.578;2023-04-08T07:38:26;14.80;;;9.57;;
31676;SDS011;18385;51.572;6.578;2023-04-08T07:40:51;17.63;;;10.65;;
31676;SDS011;18385;51.572;6.578;2023-04-08T07:43:17;17.08;;;11.25;;
31676;SDS011;18385;51.572;6.578;2023-04-08T07:45:43;17.92;;;11.07;;
31676;SDS011;18385;51.572;6.578;2023-04-08T07:48:08;16.23;;;10.63;;
31676;SDS011;18385;51.572;6.578;2023-04-08T07:50:37;18.70;;;11.10;;
31676;SDS011;18385;51.572;6.578;2023-04-08T07:53:03;13.20;;;8.57;;
31676;SDS011;18385;51.572;6.578;2023-04-08T07:55:32;14.15;;;9.85;;
31676;SDS011;18385;51.572;6.578;2023-04-08T07:57:59;15.05;;;9.90;;
31676;SDS011;18385;51.572;6.578;2023-04-08T08:00:25;14.23;;;8.95;;
31676;SDS011;18385;51.572;6.578;2023-04-08T08:02:51;14.13;;;8.95;;
31676;SDS011;18385;51.572;6.578;2023-04-08T08:05:17;14.38;;;9.48;;
31676;SDS011;18385;51.572;6.578;2023-04-08T08:07:42;14.70;;;10.18;;
31676;SDS011;18385;51.572;6.578;2023-04-08T08:10:08;11.63;;;9.35;;
31676;SDS011;18385;51.572;6.578;2023-04-08T08:12:35;12.90;;;8.88;;
31676;SDS011;18385;51.572;6.578;2023-04-08T08:15:01;15.07;;;9.57;;
31676;SDS011;18385;51.572;6.578;2023-04-08T08:17:27;11.02;;;8.10;;
31676;SDS011;18385;51.572;6.578;2023-04-08T08:19:55;11.52;;;8.00;;
31676;SDS011;18385;51.572;6.578;2023-04-08T08:22:21;13.23;;;8.15;;
31676;SDS011;18385;51.572;6.578;2023-04-08T08:24:46;12.60;;;8.85;;
31676;SDS011;18385;51.572;6.578;2023-04-08T08:27:12;11.32;;;8.75;;
31676;SDS011;18385;51.572;6.578;2023-04-08T08:29:38;11.77;;;8.43;;
31676;SDS011;18385;51.572;6.578;2023-04-08T08:32:04;13.05;;;8.88;;
31676;SDS011;18385;51.572;6.578;2023-04-08T08:34:29;12.95;;;8.07;;
31676;SDS011;18385;51.572;6.578;2023-04-08T08:36:55;13.10;;;9.07;;
31676;SDS011;18385;51.572;6.578;2023-04-08T08:39:21;14.50;;;9.57;;
31676;SDS011;18385;51.572;6.578;2023-04-08T08:41:47;13.32;;;8.90;;
31676;SDS011;18385;51.572;6.578;2023-04-08T08:44:13;11.25;;;8.65;;
31676;SDS011;18385;51.572;6.578;2023-04-08T08:46:42;13.23;;;8.15;;
31676;SDS011;18385;51.572;6.578;2023-04-08T08:49:08;12.20;;;8.45;;
31676;SDS011;18385;51.572;6.578;2023-04-08T08:51:35;12.93;;;9.05;;
31676;SDS011;18385;51.572;6.578;2023-04-08T08:54:03;11.45;;;8.45;;
31676;SDS011;18385;51.572;6.578;2023-04-08T08:56:29;15.13;;;8.85;;
31676;SDS011;18385;51.572;6.578;2023-04-08T08:58:56;12.55;;;8.63;;
31676;SDS011;18385;51.572;6.578;2023-04-08T09:01:31;12.40;;;8.52;;
31676;SDS011;18385;51.572;6.578;2023-04-08T09:06:45;12.20;;;8.35;;
31676;SDS011;18385;51.572;6.578;2023-04-08T09:09:11;13.98;;;9.18;;
31676;SDS011;18385;51.572;6.578;2023-04-08T09:11:41;15.10;;;8.60;;
31676;SDS011;18385;51.572;6.578;2023-04-08T09:16:46;13.35;;;8.93;;
31676;SDS011;18385;51.572;6.578;2023-04-08T09:19:12;14.30;;;8.52;;
31676;SDS011;18385;51.572;6.578;2023-04-08T09:21:38;14.25;;;8.55;;
31676;SDS011;18385;51.572;6.578;2023-04-08T09:24:05;13.95;;;7.95;;
31676;SDS011;18385;51.572;6.578;2023-04-08T09:26:32;12.45;;;8.35;;
31676;SDS011;18385;51.572;6.578;2023-04-08T09:31:31;11.20;;;8.32;;
31676;SDS011;18385;51.572;6.578;2023-04-08T09:34:00;14.85;;;9.27;;
31676;SDS011;18385;51.572;6.578;2023-04-08T09:36:33;12.65;;;8.00;;
31676;SDS011;18385;51.572;6.578;2023-04-08T09:38:59;12.32;;;7.75;;
31676;SDS011;18385;51.572;6.578;2023-04-08T09:41:24;9.60;;;6.57;;
31676;SDS011;18385;51.572;6.578;2023-04-08T09:43:53;14.05;;;7.10;;
31676;SDS011;18385;51.572;6.578;2023-04-08T09:46:24;11.05;;;6.57;;
31676;SDS011;18385;51.572;6.578;2023-04-08T09:51:48;12.32;;;7.10;;
31676;SDS011;18385;51.572;6.578;2023-04-08T09:58:00;13.35;;;6.95;;
31676;SDS011;18385;51.572;6.578;2023-04-08T10:00:37;10.85;;;7.28;;
31676;SDS011;18385;51.572;6.578;2023-04-08T10:05:40;10.80;;;6.70;;
31676;SDS011;18385;51.572;6.578;2023-04-08T10:08:08;10.35;;;6.60;;
31676;SDS011;18385;51.572;6.578;2023-04-08T10:10:34;9.20;;;6.78;;
31676;SDS011;18385;51.572;6.578;2023-04-08T10:13:03;8.35;;;6.18;;
31676;SDS011;18385;51.572;6.578;2023-04-08T10:22:59;8.18;;;6.43;;
31676;SDS011;18385;51.572;6.578;2023-04-08T10:28:43;8.57;;;6.15;;
31676;SDS011;18385;51.572;6.578;2023-04-08T10:38:41;8.73;;;6.03;;
31676;SDS011;18385;51.572;6.578;2023-04-08T10:41:10;10.07;;;6.43;;
31676;SDS011;18385;51.572;6.578;2023-04-08T10:43:38;11.27;;;7.03;;
31676;SDS011;18385;51.572;6.578;2023-04-08T10:46:04;9.35;;;7.32;;
31676;SDS011;18385;51.572;6.578;2023-04-08T10:48:30;12.00;;;7.00;;
31676;SDS011;18385;51.572;6.578;2023-04-08T10:50:57;11.02;;;6.90;;
31676;SDS011;18385;51.572;6.578;2023-04-08T10:53:31;10.70;;;6.60;;
31676;SDS011;18385;51.572;6.578;2023-04-08T10:56:13;10.55;;;6.78;;
31676;SDS011;18385;51.572;6.578;2023-04-08T10:58:49;12.02;;;6.18;;
31676;SDS011;18385;51.572;6.578;2023-04-08T11:01:16;8.70;;;6.45;;
31676;SDS011;18385;51.572;6.578;2023-04-08T11:03:42;10.75;;;6.20;;
31676;SDS011;18385;51.572;6.578;2023-04-08T11:06:08;9.07;;;6.68;;
31676;SDS011;18385;51.572;6.578;2023-04-08T11:08:35;8.68;;;6.22;;
31676;SDS011;18385;51.572;6.578;2023-04-08T11:11:02;8.65;;;6.25;;
31676;SDS011;18385;51.572;6.578;2023-04-08T11:13:40;10.77;;;7.00;;
31676;SDS011;18385;51.572;6.578;2023-04-08T11:16:07;8.90;;;6.47;;
31676;SDS011;18385;51.572;6.578;2023-04-08T11:18:33;9.18;;;5.97;;
31676;SDS011;18385;51.572;6.578;2023-04-08T11:21:00;9.73;;;6.10;;
31676;SDS011;18385;51.572;6.578;2023-04-08T11:23:28;7.47;;;5.60;;
31676;SDS011;18385;51.572;6.578;2023-04-08T11:25:54;10.75;;;6.88;;
31676;SDS011;18385;51.572;6.578;2023-04-08T11:28:20;8.45;;;5.93;;
31676;SDS011;18385;51.572;6.578;2023-04-08T11:30:46;11.38;;;6.15;;
31676;SDS011;18385;51.572;6.578;2023-04-08T11:33:12;9.52;;;6.25;;
31676;SDS011;18385;51.572;6.578;2023-04-08T11:35:41;12.77;;;6.13;;
31676;SDS011;18385;51.572;6.578;2023-04-08T11:38:09;10.70;;;6.80;;
31676;SDS011;18385;51.572;6.578;2023-04-08T11:40:35;11.40;;;6.78;;
31676;SDS011;18385;51.572;6.578;2023-04-08T11:43:11;7.95;;;5.75;;
31676;SDS011;18385;51.572;6.578;2023-04-08T11:45:39;9.23;;;5.47;;
31676;SDS011;18385;51.572;6.578;2023-04-08T11:48:12;10.70;;;5.95;;
31676;SDS011;18385;51.572;6.578;2023-04-08T11:50:40;9.20;;;5.70;;
31676;SDS011;18385;51.572;6.578;2023-04-08T11:53:16;10.40;;;6.03;;
31676;SDS011;18385;51.572;6.578;2023-04-08T11:55:46;9.65;;;6.03;;
31676;SDS011;18385;51.572;6.578;2023-04-08T11:58:12;7.90;;;5.75;;
31676;SDS011;18385;51.572;6.578;2023-04-08T12:00:39;8.00;;;5.35;;
31676;SDS011;18385;51.572;6.578;2023-04-08T12:03:05;10.25;;;6.45;;
31676;SDS011;18385;51.572;6.578;2023-04-08T12:05:31;7.20;;;5.10;;
31676;SDS011;18385;51.572;6.578;2023-04-08T12:07:56;7.88;;;4.75;;
31676;SDS011;18385;51.572;6.578;2023-04-08T12:10:22;8.07;;;4.80;;
31676;SDS011;18385;51.572;6.578;2023-04-08T12:12:49;8.27;;;5.00;;
31676;SDS011;18385;51.572;6.578;2023-04-08T12:15:15;7.22;;;4.70;;
31676;SDS011;18385;51.572;6.578;2023-04-08T12:17:41;7.03;;;4.68;;
31676;SDS011;18385;51.572;6.578;2023-04-08T12:20:08;6.88;;;4.95;;
31676;SDS011;18385;51.572;6.578;2023-04-08T12:22:34;8.25;;;5.40;;
31676;SDS011;18385;51.572;6.578;2023-04-08T12:25:00;9.23;;;5.00;;
31676;SDS011;18385;51.572;6.578;2023-04-08T12:27:28;8.35;;;4.75;;
31676;SDS011;18385;51.572;6.578;2023-04-08T12:29:54;6.90;;;5.63;;
31676;SDS011;18385;51.572;6.578;2023-04-08T12:32:19;7.88;;;5.32;;
31676;SDS011;18385;51.572;6.578;2023-04-08T12:34:45;9.15;;;5.00;;
31676;SDS011;18385;51.572;6.578;2023-04-08T12:37:11;6.18;;;4.57;;
31676;SDS011;18385;51.572;6.578;2023-04-08T12:39:37;8.05;;;5.38;;
31676;SDS011;18385;51.572;6.578;2023-04-08T12:42:02;9.00;;;5.50;;
31676;SDS011;18385;51.572;6.578;2023-04-08T12:44:28;9.48;;;5.38;;
31676;SDS011;18385;51.572;6.578;2023-04-08T12:46:54;7.20;;;4.60;;
31676;SDS011;18385;51.572;6.578;2023-04-08T12:49:22;5.80;;;3.72;;
31676;SDS011;18385;51.572;6.578;2023-04-08T12:51:48;6.78;;;3.67;;
31676;SDS011;18385;51.572;6.578;2023-04-08T12:54:14;6.50;;;4.13;;
31676;SDS011;18385;51.572;6.578;2023-04-08T12:56:40;5.18;;;3.70;;
31676;SDS011;18385;51.572;6.578;2023-04-08T12:59:07;5.85;;;3.80;;
31676;SDS011;18385;51.572;6.578;2023-04-08T13:01:33;7.15;;;4.07;;
31676;SDS011;18385;51.572;6.578;2023-04-08T13:03:58;5.50;;;3.88;;
31676;SDS011;18385;51.572;6.578;2023-04-08T13:06:24;5.70;;;3.85;;
31676;SDS011;18385;51.572;6.578;2023-04-08T13:08:50;6.35;;;3.83;;
31676;SDS011;18385;51.572;6.578;2023-04-08T13:11:16;6.15;;;4.28;;
31676;SDS011;18385;51.572;6.578;2023-04-08T13:13:42;5.97;;;3.63;;
31676;SDS011;18385;51.572;6.578;2023-04-08T13:16:08;8.23;;;4.28;;
31676;SDS011;18385;51.572;6.578;2023-04-08T13:18:33;8.02;;;3.92;;
31676;SDS011;18385;51.572;6.578;2023-04-08T13:21:00;8.25;;;4.50;;
31676;SDS011;18385;51.572;6.578;2023-04-08T13:23:26;6.18;;;4.10;;
31676;SDS011;18385;51.572;6.578;2023-04-08T13:25:51;6.60;;;4.45;;
31676;SDS011;18385;51.572;6.578;2023-04-08T13:28:17;5.82;;;4.45;;
31676;SDS011;18385;51.572;6.578;2023-04-08T13:30:43;6.63;;;4.22;;
31676;SDS011;18385;51.572;6.578;2023-04-08T13:33:08;5.60;;;4.18;;
31676;SDS011;18385;51.572;6.578;2023-04-08T13:35:34;5.68;;;4.50;;
31676;SDS011;18385;51.572;6.578;2023-04-08T13:38:00;6.95;;;4.47;;
31676;SDS011;18385;51.572;6.578;2023-04-08T13:40:25;5.55;;;4.25;;
31676;SDS011;18385;51.572;6.578;2023-04-08T13:42:52;8.77;;;4.60;;
31676;SDS011;18385;51.572;6.578;2023-04-08T13:45:17;6.07;;;4.55;;
31676;SDS011;18385;51.572;6.578;2023-04-08T13:47:44;6.32;;;4.80;;
31676;SDS011;18385;51.572;6.578;2023-04-08T13:50:09;7.20;;;4.88;;
31676;SDS011;18385;51.572;6.578;2023-04-08T13:52:35;8.57;;;4.22;;
31676;SDS011;18385;51.572;6.578;2023-04-08T13:55:01;6.50;;;5.18;;
31676;SDS011;18385;51.572;6.578;2023-04-08T13:57:26;8.75;;;5.00;;
31676;SDS011;18385;51.572;6.578;2023-04-08T13:59:52;7.45;;;4.90;;
31676;SDS011;18385;51.572;6.578;2023-04-08T14:02:18;8.55;;;5.53;;
31676;SDS011;18385;51.572;6.578;2023-04-08T14:04:43;8.95;;;5.68;;
31676;SDS011;18385;51.572;6.578;2023-04-08T14:07:10;8.10;;;5.30;;
31676;SDS011;18385;51.572;6.578;2023-04-08T14:09:36;8.05;;;5.07;;
31676;SDS011;18385;51.572;6.578;2023-04-08T14:12:02;6.95;;;5.18;;
31676;SDS011;18385;51.572;6.578;2023-04-08T14:14:28;8.10;;;5.88;;
31676;SDS011;18385;51.572;6.578;2023-04-08T14:16:53;8.75;;;5.38;;
31676;SDS011;18385;51.572;6.578;2023-04-08T14:19:19;6.97;;;5.10;;
31676;SDS011;18385;51.572;6.578;2023-04-08T14:21:45;8.95;;;5.72;;
31676;SDS011;18385;51.572;6.578;2023-04-08T14:24:10;10.23;;;6.32;;
31676;SDS011;18385;51.572;6.578;2023-04-08T14:26:36;8.07;;;5.60;;
31676;SDS011;18385;51.572;6.578;2023-04-08T14:29:02;10.85;;;5.82;;
31676;SDS011;18385;51.572;6.578;2023-04-08T14:31:29;8.38;;;5.90;;
31676;SDS011;18385;51.572;6.578;2023-04-08T14:33:56;9.93;;;6.50;;
31676;SDS011;18385;51.572;6.578;2023-04-08T14:36:22;8.95;;;6.15;;
31676;SDS011;18385;51.572;6.578;2023-04-08T14:38:48;10.48;;;6.63;;
31676;SDS011;18385;51.572;6.578;2023-04-08T14:41:14;8.60;;;6.38;;
31676;SDS011;18385;51.572;6.578;2023-04-08T14:43:40;7.80;;;6.05;;
31676;SDS011;18385;51.572;6.578;2023-04-08T14:46:06;9.32;;;6.68;;
31676;SDS011;18385;51.572;6.578;2023-04-08T14:48:31;10.15;;;6.68;;
31676;SDS011;18385;51.572;6.578;2023-04-08T14:50:57;8.30;;;6.15;;
31676;SDS011;18385;51.572;6.578;2023-04-08T14:53:24;9.02;;;6.32;;
31676;SDS011;18385;51.572;6.578;2023-04-08T14:55:50;10.50;;;6.50;;
31676;SDS011;18385;51.572;6.578;2023-04-08T14:58:16;7.90;;;6.40;;
31676;SDS011;18385;51.572;6.578;2023-04-08T15:00:41;10.68;;;6.40;;
31676;SDS011;18385;51.572;6.578;2023-04-08T15:03:09;11.75;;;6.43;;
31676;SDS011;18385;51.572;6.578;2023-04-08T15:05:35;7.78;;;5.90;;
31676;SDS011;18385;51.572;6.578;2023-04-08T15:08:02;8.38;;;6.15;;
31676;SDS011;18385;51.572;6.578;2023-04-08T15:10:28;8.25;;;6.45;;